createdAt,value
2018-12-25T00:01:47.282Z,6.82
2018-12-25T00:04:15.575Z,6.79
2018-12-25T00:06:43.868Z,6.81
2018-12-25T00:09:12.179Z,6.83
2018-12-25T00:11:40.471Z,6.85
2018-12-25T00:14:08.759Z,6.87
2018-12-25T00:16:37.056Z,6.85
2018-12-25T00:19:06.303Z,6.87
2018-12-25T00:21:35.366Z,6.88
2018-12-25T00:24:03.681Z,6.88
2018-12-25T00:26:31.965Z,6.89
2018-12-25T00:29:00.286Z,6.91
2018-12-25T00:31:28.570Z,6.91
2018-12-25T00:33:56.867Z,6.91
2018-12-25T00:36:25.154Z,6.95
2018-12-25T00:38:53.450Z,6.96
2018-12-25T00:41:21.737Z,6.98
2018-12-25T00:44:09.474Z,7.00
2018-12-25T00:46:37.756Z,6.98
2018-12-25T00:49:14.584Z,6.97
2018-12-25T00:51:36.090Z,6.93
2018-12-25T00:54:04.389Z,6.92
2018-12-25T00:56:32.674Z,6.91
2018-12-25T00:59:00.973Z,6.89
2018-12-25T01:01:29.264Z,6.86
2018-12-25T01:03:57.556Z,6.83
2018-12-25T01:06:25.845Z,6.78
2018-12-25T01:08:54.141Z,6.75
2018-12-25T01:11:22.452Z,6.70
2018-12-25T01:13:50.745Z,6.68
2018-12-25T01:16:19.139Z,6.63
2018-12-25T01:18:47.417Z,6.61
2018-12-25T01:21:15.703Z,6.62
2018-12-25T01:23:44.009Z,6.65
2018-12-25T01:26:12.317Z,6.62
2018-12-25T01:28:40.616Z,6.62
2018-12-25T01:31:08.918Z,6.62
2018-12-25T01:33:37.237Z,6.59
2018-12-25T01:36:05.520Z,6.58
2018-12-25T01:38:33.824Z,6.56
2018-12-25T01:41:02.131Z,6.54
2018-12-25T01:43:30.452Z,6.52
2018-12-25T01:45:58.762Z,6.47
2018-12-25T01:48:27.061Z,6.44
2018-12-25T01:50:55.354Z,6.39
2018-12-25T01:53:23.652Z,6.38
2018-12-25T01:55:51.936Z,6.40
2018-12-25T01:58:20.236Z,6.41
2018-12-25T02:00:48.519Z,6.40
2018-12-25T02:03:16.803Z,6.38
2018-12-25T02:05:45.102Z,6.34
2018-12-25T02:08:13.391Z,6.30
2018-12-25T02:10:41.695Z,6.28
2018-12-25T02:13:09.978Z,6.30
2018-12-25T02:15:38.277Z,6.28
2018-12-25T02:18:06.561Z,6.26
2018-12-25T02:20:34.860Z,6.27
2018-12-25T02:23:03.157Z,6.25
2018-12-25T02:25:31.453Z,6.24
2018-12-25T02:27:59.743Z,6.25
2018-12-25T02:30:28.035Z,6.28
2018-12-25T02:32:56.326Z,6.31
2018-12-25T02:35:24.639Z,6.32
2018-12-25T02:37:52.927Z,6.32
2018-12-25T02:40:21.221Z,6.33
2018-12-25T02:42:49.500Z,6.34
2018-12-25T02:45:17.821Z,6.34
2018-12-25T02:47:46.131Z,6.39
2018-12-25T02:50:14.434Z,6.33
2018-12-25T02:52:42.747Z,6.33
2018-12-25T02:55:30.478Z,6.31
2018-12-25T02:57:58.766Z,6.32
2018-12-25T03:00:27.064Z,6.38
2018-12-25T03:02:55.371Z,6.37
2018-12-25T03:05:23.670Z,6.33
2018-12-25T03:07:51.988Z,6.33
2018-12-25T03:10:20.290Z,6.35
2018-12-25T03:12:48.575Z,6.36
2018-12-25T03:15:16.882Z,6.34
2018-12-25T03:17:45.160Z,6.34
2018-12-25T03:20:13.460Z,6.33
2018-12-25T03:22:41.770Z,6.32
2018-12-25T03:25:10.070Z,6.36
2018-12-25T03:27:38.355Z,6.36
2018-12-25T03:32:55.540Z,6.41
2018-12-25T03:35:23.843Z,6.40
2018-12-25T03:37:52.155Z,6.40
2018-12-25T03:40:20.447Z,6.42
2018-12-25T03:42:48.762Z,6.42
2018-12-25T03:45:17.045Z,6.44
2018-12-25T03:47:45.345Z,6.45
2018-12-25T03:50:13.633Z,6.43
2018-12-25T03:52:41.931Z,6.42
2018-12-25T03:55:10.219Z,6.46
2018-12-25T03:57:38.519Z,6.44
2018-12-25T04:03:21.037Z,6.41
2018-12-25T04:05:49.321Z,6.44
2018-12-25T04:08:17.621Z,6.43
2018-12-25T04:10:45.900Z,6.44
2018-12-25T04:13:14.223Z,6.42
2018-12-25T04:15:42.513Z,6.41
2018-12-25T04:18:10.864Z,6.39
2018-12-25T04:20:39.150Z,6.37
2018-12-25T04:23:07.470Z,6.36
2018-12-25T04:25:35.754Z,6.38
2018-12-25T04:28:04.074Z,6.39
2018-12-25T04:30:32.381Z,6.41
2018-12-25T04:33:00.680Z,6.40
2018-12-25T04:35:28.965Z,6.37
2018-12-25T04:37:57.289Z,6.34
2018-12-25T04:40:25.568Z,6.33
2018-12-25T04:42:53.871Z,6.33
2018-12-25T04:45:22.158Z,6.33
2018-12-25T04:47:50.481Z,6.34
2018-12-25T04:50:18.764Z,6.33
2018-12-25T04:52:47.067Z,6.33
2018-12-25T04:55:15.374Z,6.36
2018-12-25T04:57:43.673Z,6.36
2018-12-25T05:00:11.961Z,6.36
2018-12-25T05:02:40.257Z,6.39
2018-12-25T05:05:08.543Z,6.39
2018-12-25T05:07:36.839Z,6.41
2018-12-25T05:13:18.892Z,6.45
2018-12-25T05:15:47.201Z,6.46
2018-12-25T05:18:15.510Z,6.50
2018-12-25T05:20:43.804Z,6.52
2018-12-25T05:23:12.107Z,6.55
2018-12-25T05:25:40.391Z,6.57
2018-12-25T05:28:08.690Z,6.58
2018-12-25T05:30:36.984Z,6.56
2018-12-25T05:33:05.303Z,6.56
2018-12-25T05:35:33.589Z,6.56
2018-12-25T05:38:01.891Z,6.57
2018-12-25T05:40:30.193Z,6.54
2018-12-25T05:42:58.488Z,6.55
2018-12-25T05:45:26.797Z,6.55
2018-12-25T05:47:55.099Z,6.56
2018-12-25T05:50:23.385Z,6.56
2018-12-25T05:52:51.673Z,6.58
2018-12-25T05:55:19.973Z,6.59
2018-12-25T05:57:48.258Z,6.63
2018-12-25T06:00:16.554Z,6.66
2018-12-25T06:02:44.871Z,6.69
2018-12-25T06:05:13.170Z,6.71
2018-12-25T06:07:41.479Z,6.71
2018-12-25T06:10:09.788Z,6.73
2018-12-25T06:12:38.088Z,6.73
2018-12-25T06:15:06.394Z,6.74
2018-12-25T06:17:34.676Z,6.73
2018-12-25T06:20:02.979Z,6.74
2018-12-25T06:22:31.283Z,6.74
2018-12-25T06:24:59.583Z,6.74
2018-12-25T06:27:27.869Z,6.77
2018-12-25T06:29:56.191Z,6.79
2018-12-25T06:32:24.479Z,6.76
2018-12-25T06:34:52.799Z,6.72
2018-12-25T06:37:21.092Z,6.75
2018-12-25T06:39:49.383Z,6.75
2018-12-25T06:42:17.674Z,6.75
2018-12-25T06:44:45.968Z,6.76
2018-12-25T06:47:14.277Z,6.74
2018-12-25T06:49:42.600Z,6.71
2018-12-25T06:52:10.890Z,6.73
2018-12-25T06:54:39.466Z,6.70
2018-12-25T06:57:09.198Z,6.69
2018-12-25T06:59:37.526Z,6.67
2018-12-25T07:02:05.819Z,6.66
2018-12-25T07:04:34.110Z,6.64
2018-12-25T07:07:02.402Z,6.62
2018-12-25T07:09:30.687Z,6.63
2018-12-25T07:12:18.410Z,6.61
2018-12-25T07:14:46.695Z,6.59
2018-12-25T07:17:14.999Z,6.59
2018-12-25T07:19:43.281Z,6.59
2018-12-25T07:22:11.596Z,6.61
2018-12-25T07:24:39.901Z,6.64
2018-12-25T07:27:08.197Z,6.67
2018-12-25T07:29:36.484Z,6.66
2018-12-25T07:32:04.779Z,6.66
2018-12-25T07:34:33.066Z,6.66
2018-12-25T07:37:01.360Z,6.66
2018-12-25T07:39:29.645Z,6.68
2018-12-25T07:41:57.965Z,6.67
2018-12-25T07:44:26.259Z,6.68
2018-12-25T07:46:54.580Z,6.69
2018-12-25T07:49:22.892Z,6.70
2018-12-25T07:52:10.616Z,6.68
2018-12-25T07:54:38.898Z,6.68
2018-12-25T07:57:07.199Z,6.69
2018-12-25T07:59:35.490Z,6.69
2018-12-25T08:02:03.786Z,6.74
2018-12-25T08:04:32.073Z,6.75
2018-12-25T08:07:00.369Z,6.77
2018-12-25T08:09:28.654Z,6.81
2018-12-25T08:11:56.974Z,6.85
2018-12-25T08:14:25.256Z,6.89
2018-12-25T08:16:53.555Z,6.93
2018-12-25T08:19:21.844Z,6.95
2018-12-25T08:21:50.162Z,6.98
2018-12-25T08:24:18.450Z,7.00
2018-12-25T08:26:46.745Z,7.02
2018-12-25T08:29:15.036Z,7.04
2018-12-25T08:31:43.338Z,7.08
2018-12-25T08:34:11.628Z,7.09
2018-12-25T08:36:39.930Z,7.12
2018-12-25T08:39:08.239Z,7.15
2018-12-25T08:41:36.539Z,7.19
2018-12-25T08:44:04.833Z,7.24
2018-12-25T08:46:33.120Z,7.29
2018-12-25T08:49:01.424Z,7.33
2018-12-25T08:51:37.442Z,7.36
2018-12-25T08:53:59.733Z,7.38
2018-12-25T08:56:28.043Z,7.41
2018-12-25T08:58:56.339Z,7.45
2018-12-25T09:01:24.625Z,7.49
2018-12-25T09:03:52.923Z,7.52
2018-12-25T09:06:21.202Z,7.52
2018-12-25T09:08:49.523Z,7.53
2018-12-25T09:11:17.810Z,7.56
2018-12-25T09:13:46.135Z,7.62
2018-12-25T09:16:14.417Z,7.68
2018-12-25T09:18:42.716Z,7.73
2018-12-25T09:21:11.003Z,7.77
2018-12-25T09:23:39.335Z,7.79
2018-12-25T09:26:07.621Z,7.80
2018-12-25T09:28:35.917Z,7.82
2018-12-25T09:31:04.205Z,7.84
2018-12-25T09:33:32.508Z,7.85
2018-12-25T09:36:00.817Z,7.87
2018-12-25T09:38:29.137Z,7.91
2018-12-25T09:40:57.420Z,7.90
2018-12-25T09:43:25.717Z,7.95
2018-12-25T09:45:54.022Z,7.97
2018-12-25T09:48:22.319Z,7.97
2018-12-25T09:50:50.631Z,7.99
2018-12-25T09:53:18.951Z,8.01
2018-12-25T09:55:47.262Z,8.02
2018-12-25T09:58:15.561Z,8.03
2018-12-25T10:00:43.845Z,8.03
2018-12-25T10:03:12.176Z,8.05
2018-12-25T10:05:40.497Z,8.05
2018-12-25T10:08:08.788Z,8.09
2018-12-25T10:10:37.080Z,8.11
2018-12-25T10:13:05.402Z,8.12
2018-12-25T10:15:33.688Z,8.14
2018-12-25T10:18:01.974Z,8.18
2018-12-25T10:20:30.294Z,8.20
2018-12-25T10:22:58.606Z,8.22
2018-12-25T10:25:26.907Z,8.24
2018-12-25T10:27:55.213Z,8.31
2018-12-25T10:30:23.532Z,8.35
2018-12-25T10:32:51.818Z,8.39
2018-12-25T10:35:20.137Z,8.38
2018-12-25T10:37:48.428Z,8.39
2018-12-25T10:40:16.726Z,8.40
2018-12-25T10:42:45.014Z,8.42
2018-12-25T10:45:13.309Z,8.43
2018-12-25T10:47:41.622Z,8.44
2018-12-25T10:50:09.944Z,8.44
2018-12-25T10:52:38.229Z,8.45
2018-12-25T10:55:06.528Z,8.46
2018-12-25T10:57:34.814Z,8.48
2018-12-25T11:02:57.324Z,8.50
2018-12-25T11:05:25.622Z,8.52
2018-12-25T11:07:53.911Z,8.54
2018-12-25T11:10:22.212Z,8.56
2018-12-25T11:12:50.581Z,8.60
2018-12-25T11:15:18.892Z,8.62
2018-12-25T11:17:47.183Z,8.61
2018-12-25T11:20:15.481Z,8.61
2018-12-25T11:22:43.770Z,8.62
2018-12-25T11:25:12.073Z,8.62
2018-12-25T11:27:40.356Z,8.63
2018-12-25T11:30:08.654Z,8.66
2018-12-25T11:32:44.127Z,8.66
2018-12-25T11:35:12.442Z,8.66
2018-12-25T11:37:40.725Z,8.67
2018-12-25T11:40:09.020Z,8.67
2018-12-25T11:42:37.305Z,8.68
2018-12-25T11:45:05.625Z,8.71
2018-12-25T11:47:33.932Z,8.70
2018-12-25T11:50:02.236Z,8.67
2018-12-25T11:52:30.517Z,8.66
2018-12-25T11:54:58.817Z,8.68
2018-12-25T11:57:27.108Z,8.70
2018-12-25T11:59:55.431Z,8.75
2018-12-25T12:02:23.728Z,8.76
2018-12-25T12:04:52.026Z,8.77
2018-12-25T12:07:20.315Z,8.77
2018-12-25T12:09:48.628Z,8.81
2018-12-25T12:12:16.925Z,8.84
2018-12-25T12:14:45.247Z,8.87
2018-12-25T12:17:13.548Z,8.92
2018-12-25T12:19:41.835Z,8.95
2018-12-25T12:22:10.138Z,8.99
2018-12-25T12:24:38.428Z,8.98
2018-12-25T12:27:06.757Z,9.01
2018-12-25T12:29:35.041Z,9.05
2018-12-25T12:32:03.368Z,9.07
2018-12-25T12:34:31.677Z,9.11
2018-12-25T12:36:59.981Z,9.11
2018-12-25T12:39:47.695Z,9.09
2018-12-25T12:42:35.426Z,9.05
2018-12-25T12:47:58.070Z,9.07
2018-12-25T12:50:26.501Z,9.09
2018-12-25T12:52:54.922Z,9.10
2018-12-25T12:55:23.209Z,9.09
2018-12-25T12:57:51.531Z,9.10
2018-12-25T13:00:19.824Z,9.10
2018-12-25T13:02:48.122Z,9.07
2018-12-25T13:05:16.434Z,9.08
2018-12-25T13:07:44.733Z,9.08
2018-12-25T13:10:13.018Z,9.07
2018-12-25T13:12:41.321Z,9.06
2018-12-25T13:15:09.633Z,9.00
2018-12-25T13:17:37.929Z,8.96
2018-12-25T13:23:19.949Z,8.98
2018-12-25T13:25:48.242Z,8.95
2018-12-25T13:28:16.549Z,8.93
2018-12-25T13:30:44.830Z,8.92
2018-12-25T13:33:13.179Z,8.92
2018-12-25T13:35:41.433Z,8.91
2018-12-25T13:38:09.759Z,8.90
2018-12-25T13:40:38.045Z,8.92
2018-12-25T13:43:06.340Z,8.92
2018-12-25T13:45:34.642Z,8.95
2018-12-25T13:48:03.003Z,8.94
2018-12-25T13:50:31.290Z,8.92
2018-12-25T13:53:03.022Z,8.95
2018-12-25T13:55:29.604Z,8.97
2018-12-25T13:57:57.901Z,8.97
2018-12-25T14:00:26.187Z,8.93
2018-12-25T14:02:54.988Z,8.89
2018-12-25T14:05:23.277Z,8.91
2018-12-25T14:07:51.599Z,8.89
2018-12-25T14:10:19.885Z,8.90
2018-12-25T14:12:48.182Z,8.89
2018-12-25T14:15:16.466Z,8.85
2018-12-25T14:17:44.782Z,8.85
2018-12-25T14:20:13.073Z,8.84
2018-12-25T14:22:41.375Z,8.81
2018-12-25T14:25:09.681Z,8.79
2018-12-25T14:27:37.986Z,8.76
2018-12-25T14:33:20.437Z,8.75
2018-12-25T14:35:48.721Z,8.73
2018-12-25T14:38:17.034Z,8.72
2018-12-25T14:40:45.345Z,8.71
2018-12-25T14:43:13.651Z,8.66
2018-12-25T14:45:41.965Z,8.59
2018-12-25T14:48:10.267Z,8.56
2018-12-25T14:50:38.560Z,8.55
2018-12-25T14:53:06.862Z,8.53
2018-12-25T14:55:35.173Z,8.51
2018-12-25T14:58:03.493Z,8.49
2018-12-25T15:00:31.786Z,8.47
2018-12-25T15:03:00.115Z,8.47
2018-12-25T15:05:28.427Z,8.48
2018-12-25T15:07:56.720Z,8.46
2018-12-25T15:10:25.019Z,8.45
2018-12-25T15:12:53.429Z,8.44
2018-12-25T15:15:21.710Z,8.46
2018-12-25T15:17:50.012Z,8.49
2018-12-25T15:20:18.291Z,8.50
2018-12-25T15:22:46.593Z,8.52
2018-12-25T15:25:14.881Z,8.49
2018-12-25T15:27:43.208Z,8.50
2018-12-25T15:30:11.513Z,8.51
2018-12-25T15:32:39.804Z,8.50
2018-12-25T15:35:48.218Z,8.49
2018-12-25T15:38:16.538Z,8.53
2018-12-25T15:40:44.825Z,8.57
2018-12-25T15:43:13.162Z,8.77
2018-12-25T15:45:41.471Z,8.98
2018-12-25T15:48:09.769Z,9.13
2018-12-25T15:50:38.082Z,9.20
2018-12-25T15:53:06.366Z,9.28
2018-12-25T15:55:34.686Z,9.30
2018-12-25T15:58:03.049Z,9.38
2018-12-25T16:00:32.049Z,9.40
2018-12-25T16:03:01.376Z,9.55
2018-12-25T16:05:29.701Z,9.70
2018-12-25T16:07:57.980Z,9.80
2018-12-25T16:11:06.412Z,9.80
2018-12-25T16:13:34.697Z,9.71
2018-12-25T16:16:43.112Z,9.69
2018-12-25T16:19:11.421Z,9.69
2018-12-25T16:21:39.720Z,9.59
2018-12-25T16:24:08.008Z,9.51
2018-12-25T16:26:36.337Z,9.47
2018-12-25T16:29:04.620Z,9.54
2018-12-25T16:31:32.923Z,9.60
2018-12-25T16:34:01.218Z,9.66
2018-12-25T16:36:29.504Z,9.66
2018-12-25T16:38:57.788Z,9.70
2018-12-25T16:41:26.123Z,9.63
2018-12-25T16:43:54.413Z,9.60
2018-12-25T16:46:22.709Z,9.51
2018-12-25T16:48:51.016Z,9.45
2018-12-25T16:51:19.316Z,9.39
2018-12-25T16:53:53.496Z,9.40
2018-12-25T16:56:17.646Z,9.43
2018-12-25T16:58:45.928Z,9.48
2018-12-25T17:01:14.263Z,9.48
2018-12-25T17:03:42.571Z,9.44
2018-12-25T17:06:10.856Z,9.40
2018-12-25T17:08:39.157Z,9.43
2018-12-25T17:11:07.441Z,9.52
2018-12-25T17:13:35.743Z,9.61
2018-12-25T17:16:04.033Z,9.71
2018-12-25T17:18:32.330Z,9.65
2018-12-25T17:21:00.617Z,9.54
2018-12-25T17:23:28.913Z,9.51
2018-12-25T17:25:57.220Z,9.61
2018-12-25T17:28:27.925Z,9.61
2018-12-25T17:30:55.552Z,9.63
2018-12-25T17:33:23.858Z,9.70
2018-12-25T17:35:52.145Z,9.71
2018-12-25T17:38:20.467Z,9.65
2018-12-25T17:40:48.754Z,9.62
2018-12-25T17:43:17.050Z,9.59
2018-12-25T17:45:45.337Z,9.52
2018-12-25T17:48:13.635Z,9.50
2018-12-25T17:50:41.916Z,9.46
2018-12-25T17:53:10.213Z,9.50
2018-12-25T17:55:38.498Z,9.46
2018-12-25T17:58:06.792Z,9.52
2018-12-25T18:00:35.101Z,9.61
2018-12-25T18:03:03.390Z,9.65
2018-12-25T18:05:31.711Z,9.65
2018-12-25T18:08:00.020Z,9.61
2018-12-25T18:10:28.323Z,9.48
2018-12-25T18:12:56.637Z,9.48
2018-12-25T18:15:24.949Z,9.51
2018-12-25T18:17:53.236Z,9.56
2018-12-25T18:20:21.558Z,9.58
2018-12-25T18:22:49.839Z,9.65
2018-12-25T18:25:18.162Z,9.70
2018-12-25T18:27:46.450Z,9.74
2018-12-25T18:30:14.750Z,9.71
2018-12-25T18:32:43.032Z,9.70
2018-12-25T18:35:11.328Z,9.61
2018-12-25T18:37:39.612Z,9.61
2018-12-25T18:40:08.005Z,9.53
2018-12-25T18:42:36.319Z,9.44
2018-12-25T18:45:44.754Z,9.45
2018-12-25T18:48:13.043Z,9.52
2018-12-25T18:50:41.340Z,9.53
2018-12-25T18:53:09.650Z,9.48
2018-12-25T18:55:37.948Z,9.45
2018-12-25T18:58:06.232Z,9.46
2018-12-25T19:00:34.538Z,9.40
2018-12-25T19:03:02.821Z,9.42
2018-12-25T19:05:31.120Z,9.42
2018-12-25T19:07:59.404Z,9.47
2018-12-25T19:10:27.711Z,9.55
2018-12-25T19:12:55.992Z,9.57
2018-12-25T19:16:04.425Z,9.55
2018-12-25T19:18:32.712Z,9.48
2018-12-25T19:21:01.014Z,9.50
2018-12-25T19:23:29.304Z,9.53
2018-12-25T19:25:57.605Z,9.46
2018-12-25T19:28:45.326Z,9.40
2018-12-25T19:31:13.644Z,9.39
2018-12-25T19:34:01.367Z,9.39
2018-12-25T19:36:29.672Z,9.40
2018-12-25T19:42:04.636Z,9.44
2018-12-25T19:44:32.916Z,9.46
2018-12-25T19:47:01.240Z,9.41
2018-12-25T19:49:29.525Z,9.31
2018-12-25T19:51:57.825Z,9.22
2018-12-25T19:54:26.134Z,9.14
2018-12-25T19:56:54.458Z,9.10
2018-12-25T19:59:22.775Z,9.09
2018-12-25T20:01:51.077Z,9.06
2018-12-25T20:04:59.474Z,9.05
2018-12-25T20:08:06.573Z,9.07
2018-12-25T20:20:28.375Z,8.98
2018-12-25T20:23:36.787Z,8.94
2018-12-25T20:26:43.898Z,8.94
2018-12-25T20:29:50.995Z,8.92
2018-12-25T20:32:58.094Z,8.95
2018-12-25T20:36:05.188Z,8.91
2018-12-25T20:39:12.288Z,8.98
2018-12-25T20:42:19.365Z,9.09
2018-12-25T20:45:26.489Z,9.16
2018-12-25T20:48:33.587Z,9.19
2018-12-25T20:54:41.530Z,9.17
2018-12-25T21:03:50.164Z,9.13
2018-12-25T21:06:30.888Z,9.05
2018-12-25T21:09:37.983Z,9.00
2018-12-25T21:15:59.275Z,9.10
2018-12-25T21:18:40.101Z,9.09
2018-12-25T21:21:47.224Z,9.01
2018-12-25T21:24:54.367Z,9.04
2018-12-25T21:27:41.605Z,9.06
2018-12-25T21:30:09.906Z,9.04
2018-12-25T21:32:38.213Z,9.12
2018-12-25T21:35:46.632Z,9.06
2018-12-25T21:38:14.920Z,9.02
2018-12-25T21:40:43.226Z,9.02
2018-12-25T21:43:11.521Z,8.93
2018-12-25T21:45:39.817Z,8.90
2018-12-25T21:48:08.127Z,8.95
2018-12-25T21:50:36.488Z,8.98
2018-12-25T21:53:04.743Z,8.93
2018-12-25T21:55:33.043Z,8.92
2018-12-25T21:58:01.329Z,9.01
2018-12-25T22:00:29.621Z,9.03
2018-12-25T22:02:57.923Z,9.10
2018-12-25T22:05:26.216Z,9.19
2018-12-25T22:07:54.532Z,9.24
2018-12-25T22:10:22.826Z,9.15
2018-12-25T22:12:51.142Z,9.11
2018-12-25T22:15:19.543Z,9.06
2018-12-25T22:17:47.830Z,8.99
2018-12-25T22:23:29.984Z,8.89
2018-12-25T22:25:58.399Z,8.93
2018-12-25T22:28:28.321Z,8.97
2018-12-25T22:30:56.588Z,8.89
2018-12-25T22:33:24.884Z,8.91
2018-12-25T22:35:53.194Z,9.00
2018-12-25T22:38:21.491Z,9.00
2018-12-25T22:40:49.778Z,8.94
2018-12-25T22:43:18.077Z,8.88
2018-12-25T22:45:46.361Z,8.94
2018-12-25T22:48:14.682Z,9.00
2018-12-25T22:50:42.996Z,9.02
2018-12-25T22:53:11.273Z,8.99
2018-12-25T22:55:39.578Z,8.97
2018-12-25T22:58:07.875Z,8.96
2018-12-25T23:03:25.041Z,8.70
2018-12-25T23:05:53.364Z,8.55
2018-12-25T23:08:21.685Z,8.48
2018-12-25T23:10:49.969Z,8.43
2018-12-25T23:13:18.291Z,8.39
2018-12-25T23:15:46.588Z,8.34
2018-12-25T23:18:14.911Z,8.31
2018-12-25T23:20:43.217Z,8.25
2018-12-25T23:23:11.545Z,8.21
2018-12-25T23:25:44.588Z,8.15
2018-12-25T23:28:09.855Z,8.10
2018-12-25T23:30:38.143Z,8.11
2018-12-25T23:33:06.444Z,8.11
2018-12-25T23:35:34.725Z,8.06
2018-12-25T23:38:03.030Z,8.05
2018-12-25T23:40:31.313Z,8.04
2018-12-25T23:42:59.638Z,8.03
2018-12-25T23:45:27.948Z,8.01
2018-12-25T23:47:56.237Z,7.96
2018-12-25T23:50:24.538Z,7.97
2018-12-25T23:52:52.864Z,7.96
2018-12-25T23:55:21.138Z,7.92
2018-12-25T23:57:49.432Z,7.91
